sensor_id;sensor_type;location;lat;lon;timestamp;temperature;humidity
47532;DHT22;33273;52.254;7.988;2022-10-16T00:01:09;12.60;99.90
47532;DHT22;33273;52.254;7.988;2022-10-16T00:03:38;12.60;99.90
47532;DHT22;33273;52.254;7.988;2022-10-16T00:06:05;12.60;99.90
47532;DHT22;33273;52.254;7.988;2022-10-16T00:08:34;12.60;99.90
47532;DHT22;33273;52.254;7.988;2022-10-16T00:11:09;12.60;99.90
47532;DHT22;33273;52.254;7.988;2022-10-16T00:13:38;12.60;99.90
47532;DHT22;33273;52.254;7.988;2022-10-16T00:16:07;12.60;99.90
47532;DHT22;33273;52.254;7.988;2022-10-16T00:18:33;12.60;99.90
47532;DHT22;33273;52.254;7.988;2022-10-16T00:21:11;12.60;99.90
47532;DHT22;33273;52.254;7.988;2022-10-16T00:23:38;12.60;99.90
47532;DHT22;33273;52.254;7.988;2022-10-16T00:26:09;12.60;99.90
47532;DHT22;33273;52.254;7.988;2022-10-16T00:28:35;12.60;99.90
47532;DHT22;33273;52.254;7.988;2022-10-16T00:31:05;12.60;99.90
47532;DHT22;33273;52.254;7.988;2022-10-16T00:33:31;12.60;99.90
47532;DHT22;33273;52.254;7.988;2022-10-16T00:35:58;12.50;99.90
47532;DHT22;33273;52.254;7.988;2022-10-16T00:38:25;12.50;99.90
47532;DHT22;33273;52.254;7.988;2022-10-16T00:40:53;12.60;99.90
47532;DHT22;33273;52.254;7.988;2022-10-16T00:46:11;12.50;99.90
47532;DHT22;33273;52.254;7.988;2022-10-16T00:48:38;12.50;99.90
47532;DHT22;33273;52.254;7.988;2022-10-16T00:51:07;12.50;99.90
47532;DHT22;33273;52.254;7.988;2022-10-16T00:53:34;12.50;99.90
47532;DHT22;33273;52.254;7.988;2022-10-16T00:56:02;12.50;99.90
47532;DHT22;33273;52.254;7.988;2022-10-16T00:58:29;12.50;99.90
47532;DHT22;33273;52.254;7.988;2022-10-16T01:00:58;12.50;99.90
47532;DHT22;33273;52.254;7.988;2022-10-16T01:03:30;12.50;99.90
47532;DHT22;33273;52.254;7.988;2022-10-16T01:16:58;12.50;99.90
47532;DHT22;33273;52.254;7.988;2022-10-16T01:22:20;12.50;99.90
47532;DHT22;33273;52.254;7.988;2022-10-16T01:24:49;12.50;99.90
47532;DHT22;33273;52.254;7.988;2022-10-16T01:27:42;12.50;99.90
47532;DHT22;33273;52.254;7.988;2022-10-16T01:30:32;12.50;99.90
47532;DHT22;33273;52.254;7.988;2022-10-16T01:33:17;12.40;99.90
47532;DHT22;33273;52.254;7.988;2022-10-16T01:35:54;12.50;99.90
47532;DHT22;33273;52.254;7.988;2022-10-16T01:38:31;12.50;99.90
47532;DHT22;33273;52.254;7.988;2022-10-16T01:41:06;12.50;99.90
47532;DHT22;33273;52.254;7.988;2022-10-16T01:43:41;12.50;99.90
47532;DHT22;33273;52.254;7.988;2022-10-16T01:46:08;12.50;99.90
47532;DHT22;33273;52.254;7.988;2022-10-16T01:48:36;12.50;99.90
47532;DHT22;33273;52.254;7.988;2022-10-16T01:51:06;12.50;99.90
47532;DHT22;33273;52.254;7.988;2022-10-16T01:53:34;12.40;99.90
47532;DHT22;33273;52.254;7.988;2022-10-16T01:56:02;12.50;99.90
47532;DHT22;33273;52.254;7.988;2022-10-16T01:58:34;12.40;99.90
47532;DHT22;33273;52.254;7.988;2022-10-16T02:01:04;12.50;99.90
47532;DHT22;33273;52.254;7.988;2022-10-16T02:03:34;12.40;99.90
47532;DHT22;33273;52.254;7.988;2022-10-16T02:06:01;12.40;99.90
47532;DHT22;33273;52.254;7.988;2022-10-16T02:08:28;12.40;99.90
47532;DHT22;33273;52.254;7.988;2022-10-16T02:10:56;12.40;99.90
47532;DHT22;33273;52.254;7.988;2022-10-16T02:15:52;12.40;99.90
47532;DHT22;33273;52.254;7.988;2022-10-16T02:18:20;12.40;99.90
47532;DHT22;33273;52.254;7.988;2022-10-16T02:21:25;12.40;99.90
47532;DHT22;33273;52.254;7.988;2022-10-16T02:26:35;12.40;99.90
47532;DHT22;33273;52.254;7.988;2022-10-16T02:29:08;12.40;99.90
47532;DHT22;33273;52.254;7.988;2022-10-16T02:31:40;12.40;99.90
47532;DHT22;33273;52.254;7.988;2022-10-16T02:34:07;12.40;99.90
47532;DHT22;33273;52.254;7.988;2022-10-16T02:36:35;12.40;99.90
47532;DHT22;33273;52.254;7.988;2022-10-16T02:39:03;12.30;99.90
47532;DHT22;33273;52.254;7.988;2022-10-16T02:41:31;12.30;99.90
47532;DHT22;33273;52.254;7.988;2022-10-16T02:43:57;12.30;99.90
47532;DHT22;33273;52.254;7.988;2022-10-16T02:46:24;12.40;99.90
47532;DHT22;33273;52.254;7.988;2022-10-16T02:48:49;12.40;99.90
47532;DHT22;33273;52.254;7.988;2022-10-16T02:51:16;12.30;99.90
47532;DHT22;33273;52.254;7.988;2022-10-16T02:53:43;12.40;99.90
47532;DHT22;33273;52.254;7.988;2022-10-16T02:56:09;12.40;99.90
47532;DHT22;33273;52.254;7.988;2022-10-16T02:58:35;12.40;99.90
47532;DHT22;33273;52.254;7.988;2022-10-16T03:01:01;12.40;99.90
47532;DHT22;33273;52.254;7.988;2022-10-16T03:03:28;12.40;99.90
47532;DHT22;33273;52.254;7.988;2022-10-16T03:05:55;12.40;99.90
47532;DHT22;33273;52.254;7.988;2022-10-16T03:08:21;12.40;99.90
47532;DHT22;33273;52.254;7.988;2022-10-16T03:10:49;12.50;99.90
47532;DHT22;33273;52.254;7.988;2022-10-16T03:13:15;12.50;99.90
47532;DHT22;33273;52.254;7.988;2022-10-16T03:15:43;12.50;99.90
47532;DHT22;33273;52.254;7.988;2022-10-16T03:18:09;12.50;99.90
47532;DHT22;33273;52.254;7.988;2022-10-16T03:20:35;12.50;99.90
47532;DHT22;33273;52.254;7.988;2022-10-16T03:23:01;12.50;99.90
47532;DHT22;33273;52.254;7.988;2022-10-16T03:25:28;12.50;99.90
47532;DHT22;33273;52.254;7.988;2022-10-16T03:27:53;12.50;99.90
47532;DHT22;33273;52.254;7.988;2022-10-16T03:30:19;12.50;99.90
47532;DHT22;33273;52.254;7.988;2022-10-16T03:32:46;12.50;99.90
47532;DHT22;33273;52.254;7.988;2022-10-16T03:35:12;12.50;99.90
47532;DHT22;33273;52.254;7.988;2022-10-16T03:37:37;12.50;99.90
47532;DHT22;33273;52.254;7.988;2022-10-16T03:40:04;12.50;99.90
47532;DHT22;33273;52.254;7.988;2022-10-16T03:42:30;12.50;99.90
47532;DHT22;33273;52.254;7.988;2022-10-16T03:44:56;12.50;99.90
47532;DHT22;33273;52.254;7.988;2022-10-16T03:47:22;12.40;99.90
47532;DHT22;33273;52.254;7.988;2022-10-16T03:49:50;12.40;99.90
47532;DHT22;33273;52.254;7.988;2022-10-16T03:52:16;12.40;99.90
47532;DHT22;33273;52.254;7.988;2022-10-16T03:54:43;12.40;99.90
47532;DHT22;33273;52.254;7.988;2022-10-16T03:57:09;12.40;99.90
47532;DHT22;33273;52.254;7.988;2022-10-16T03:59:36;12.40;99.90
47532;DHT22;33273;52.254;7.988;2022-10-16T04:02:02;12.40;99.90
47532;DHT22;33273;52.254;7.988;2022-10-16T04:04:29;12.40;99.90
47532;DHT22;33273;52.254;7.988;2022-10-16T04:06:56;12.40;99.90
47532;DHT22;33273;52.254;7.988;2022-10-16T04:09:22;12.40;99.90
47532;DHT22;33273;52.254;7.988;2022-10-16T04:11:48;12.40;99.90
47532;DHT22;33273;52.254;7.988;2022-10-16T04:14:15;12.40;99.90
47532;DHT22;33273;52.254;7.988;2022-10-16T04:16:40;12.40;99.90
47532;DHT22;33273;52.254;7.988;2022-10-16T04:19:06;12.40;99.90
47532;DHT22;33273;52.254;7.988;2022-10-16T04:21:34;12.40;99.90
47532;DHT22;33273;52.254;7.988;2022-10-16T04:24:00;12.40;99.90
47532;DHT22;33273;52.254;7.988;2022-10-16T04:26:26;12.50;99.90
47532;DHT22;33273;52.254;7.988;2022-10-16T04:28:52;12.50;99.90
47532;DHT22;33273;52.254;7.988;2022-10-16T04:31:18;12.40;99.90
47532;DHT22;33273;52.254;7.988;2022-10-16T04:33:44;12.40;99.90
47532;DHT22;33273;52.254;7.988;2022-10-16T04:36:09;12.40;99.90
47532;DHT22;33273;52.254;7.988;2022-10-16T04:38:36;12.40;99.90
47532;DHT22;33273;52.254;7.988;2022-10-16T04:41:03;12.40;99.90
47532;DHT22;33273;52.254;7.988;2022-10-16T04:43:29;12.40;99.90
47532;DHT22;33273;52.254;7.988;2022-10-16T04:45:57;12.40;99.90
47532;DHT22;33273;52.254;7.988;2022-10-16T04:48:24;12.40;99.90
47532;DHT22;33273;52.254;7.988;2022-10-16T04:50:50;12.40;99.90
47532;DHT22;33273;52.254;7.988;2022-10-16T04:53:16;12.40;99.90
47532;DHT22;33273;52.254;7.988;2022-10-16T04:55:42;12.40;99.90
47532;DHT22;33273;52.254;7.988;2022-10-16T04:58:08;12.40;99.90
47532;DHT22;33273;52.254;7.988;2022-10-16T05:00:34;12.40;99.90
47532;DHT22;33273;52.254;7.988;2022-10-16T05:03:01;12.50;99.90
47532;DHT22;33273;52.254;7.988;2022-10-16T05:05:31;12.40;99.90
47532;DHT22;33273;52.254;7.988;2022-10-16T05:07:57;12.40;99.90
47532;DHT22;33273;52.254;7.988;2022-10-16T05:10:23;12.40;99.90
47532;DHT22;33273;52.254;7.988;2022-10-16T05:12:49;12.40;99.90
47532;DHT22;33273;52.254;7.988;2022-10-16T05:15:17;12.50;99.90
47532;DHT22;33273;52.254;7.988;2022-10-16T05:17:44;12.50;99.90
47532;DHT22;33273;52.254;7.988;2022-10-16T05:20:11;12.50;99.90
47532;DHT22;33273;52.254;7.988;2022-10-16T05:22:38;12.50;99.90
47532;DHT22;33273;52.254;7.988;2022-10-16T05:25:04;12.50;99.90
47532;DHT22;33273;52.254;7.988;2022-10-16T05:27:30;12.50;99.90
47532;DHT22;33273;52.254;7.988;2022-10-16T05:29:56;12.50;99.90
47532;DHT22;33273;52.254;7.988;2022-10-16T05:32:22;12.50;99.90
47532;DHT22;33273;52.254;7.988;2022-10-16T05:34:48;12.40;99.90
47532;DHT22;33273;52.254;7.988;2022-10-16T05:37:15;12.40;99.90
47532;DHT22;33273;52.254;7.988;2022-10-16T05:39:44;12.50;99.90
47532;DHT22;33273;52.254;7.988;2022-10-16T05:42:10;12.50;99.90
47532;DHT22;33273;52.254;7.988;2022-10-16T05:44:37;12.50;99.90
47532;DHT22;33273;52.254;7.988;2022-10-16T05:47:03;12.50;99.90
47532;DHT22;33273;52.254;7.988;2022-10-16T05:49:29;12.40;99.90
47532;DHT22;33273;52.254;7.988;2022-10-16T05:51:55;12.40;99.90
47532;DHT22;33273;52.254;7.988;2022-10-16T05:54:21;12.50;99.90
47532;DHT22;33273;52.254;7.988;2022-10-16T05:56:49;12.40;99.90
47532;DHT22;33273;52.254;7.988;2022-10-16T05:59:15;12.50;99.90
47532;DHT22;33273;52.254;7.988;2022-10-16T06:01:41;12.50;99.90
47532;DHT22;33273;52.254;7.988;2022-10-16T06:04:08;12.40;99.90
47532;DHT22;33273;52.254;7.988;2022-10-16T06:06:34;12.50;99.90
47532;DHT22;33273;52.254;7.988;2022-10-16T06:09:03;12.40;99.90
47532;DHT22;33273;52.254;7.988;2022-10-16T06:11:31;12.40;99.90
47532;DHT22;33273;52.254;7.988;2022-10-16T06:14:00;12.40;99.90
47532;DHT22;33273;52.254;7.988;2022-10-16T06:16:34;12.40;99.90
47532;DHT22;33273;52.254;7.988;2022-10-16T06:19:01;12.40;99.90
47532;DHT22;33273;52.254;7.988;2022-10-16T06:21:28;12.40;99.90
47532;DHT22;33273;52.254;7.988;2022-10-16T06:23:56;12.40;99.90
47532;DHT22;33273;52.254;7.988;2022-10-16T06:26:27;12.40;99.90
47532;DHT22;33273;52.254;7.988;2022-10-16T06:28:58;12.40;99.90
47532;DHT22;33273;52.254;7.988;2022-10-16T06:31:29;12.40;99.90
47532;DHT22;33273;52.254;7.988;2022-10-16T06:33:58;12.40;99.90
47532;DHT22;33273;52.254;7.988;2022-10-16T06:36:24;12.40;99.90
47532;DHT22;33273;52.254;7.988;2022-10-16T06:38:50;12.40;99.90
47532;DHT22;33273;52.254;7.988;2022-10-16T06:41:19;12.50;99.90
47532;DHT22;33273;52.254;7.988;2022-10-16T06:43:47;12.60;99.90
47532;DHT22;33273;52.254;7.988;2022-10-16T06:46:15;12.60;99.90
47532;DHT22;33273;52.254;7.988;2022-10-16T06:48:41;12.60;99.90
47532;DHT22;33273;52.254;7.988;2022-10-16T06:51:15;12.60;99.90
47532;DHT22;33273;52.254;7.988;2022-10-16T06:53:50;12.60;99.90
47532;DHT22;33273;52.254;7.988;2022-10-16T06:58:43;12.70;99.90
47532;DHT22;33273;52.254;7.988;2022-10-16T07:01:09;12.70;99.90
47532;DHT22;33273;52.254;7.988;2022-10-16T07:03:39;12.80;99.90
47532;DHT22;33273;52.254;7.988;2022-10-16T07:06:07;12.80;99.90
47532;DHT22;33273;52.254;7.988;2022-10-16T07:08:36;12.80;99.90
47532;DHT22;33273;52.254;7.988;2022-10-16T07:11:05;12.80;99.90
47532;DHT22;33273;52.254;7.988;2022-10-16T07:13:38;12.80;99.90
47532;DHT22;33273;52.254;7.988;2022-10-16T07:16:10;12.80;99.90
47532;DHT22;33273;52.254;7.988;2022-10-16T07:18:40;12.90;99.90
47532;DHT22;33273;52.254;7.988;2022-10-16T07:21:21;12.90;99.90
47532;DHT22;33273;52.254;7.988;2022-10-16T07:23:55;12.80;99.90
47532;DHT22;33273;52.254;7.988;2022-10-16T07:26:25;12.80;99.90
47532;DHT22;33273;52.254;7.988;2022-10-16T07:28:52;12.80;99.90
47532;DHT22;33273;52.254;7.988;2022-10-16T07:31:20;12.90;99.90
47532;DHT22;33273;52.254;7.988;2022-10-16T07:33:46;12.80;99.90
47532;DHT22;33273;52.254;7.988;2022-10-16T07:36:15;12.80;99.90
47532;DHT22;33273;52.254;7.988;2022-10-16T07:38:41;12.80;99.90
47532;DHT22;33273;52.254;7.988;2022-10-16T07:41:11;12.90;99.90
47532;DHT22;33273;52.254;7.988;2022-10-16T07:43:40;12.90;99.90
47532;DHT22;33273;52.254;7.988;2022-10-16T07:46:05;12.90;99.90
47532;DHT22;33273;52.254;7.988;2022-10-16T07:48:33;13.00;99.90
47532;DHT22;33273;52.254;7.988;2022-10-16T07:51:05;13.10;99.90
47532;DHT22;33273;52.254;7.988;2022-10-16T07:53:32;13.10;99.90
47532;DHT22;33273;52.254;7.988;2022-10-16T07:56:02;13.10;99.90
47532;DHT22;33273;52.254;7.988;2022-10-16T07:58:28;13.20;99.90
47532;DHT22;33273;52.254;7.988;2022-10-16T08:00:55;13.30;99.90
47532;DHT22;33273;52.254;7.988;2022-10-16T08:03:22;13.30;99.90
47532;DHT22;33273;52.254;7.988;2022-10-16T08:05:48;13.40;99.90
47532;DHT22;33273;52.254;7.988;2022-10-16T08:08:15;13.50;99.90
47532;DHT22;33273;52.254;7.988;2022-10-16T08:10:42;13.50;99.90
47532;DHT22;33273;52.254;7.988;2022-10-16T08:13:08;13.60;99.90
47532;DHT22;33273;52.254;7.988;2022-10-16T08:15:34;13.60;99.90
47532;DHT22;33273;52.254;7.988;2022-10-16T08:18:02;13.70;99.40
47532;DHT22;33273;52.254;7.988;2022-10-16T08:20:29;13.80;98.40
47532;DHT22;33273;52.254;7.988;2022-10-16T08:22:56;13.80;98.90
47532;DHT22;33273;52.254;7.988;2022-10-16T08:25:23;13.90;99.30
47532;DHT22;33273;52.254;7.988;2022-10-16T08:27:50;14.00;98.90
47532;DHT22;33273;52.254;7.988;2022-10-16T08:30:17;14.10;96.60
47532;DHT22;33273;52.254;7.988;2022-10-16T08:32:43;14.10;96.10
47532;DHT22;33273;52.254;7.988;2022-10-16T08:35:11;14.20;95.50
47532;DHT22;33273;52.254;7.988;2022-10-16T08:37:38;14.30;95.10
47532;DHT22;33273;52.254;7.988;2022-10-16T08:40:18;14.30;95.00
47532;DHT22;33273;52.254;7.988;2022-10-16T08:45:24;14.50;93.00
47532;DHT22;33273;52.254;7.988;2022-10-16T08:50:25;14.60;91.70
47532;DHT22;33273;52.254;7.988;2022-10-16T08:52:54;14.70;91.40
47532;DHT22;33273;52.254;7.988;2022-10-16T08:58:18;14.80;90.30
47532;DHT22;33273;52.254;7.988;2022-10-16T09:00:53;14.80;89.50
47532;DHT22;33273;52.254;7.988;2022-10-16T09:06:00;15.00;88.20
47532;DHT22;33273;52.254;7.988;2022-10-16T09:08:53;15.00;87.70
47532;DHT22;33273;52.254;7.988;2022-10-16T09:11:41;15.10;87.90
47532;DHT22;33273;52.254;7.988;2022-10-16T09:17:03;15.30;87.10
47532;DHT22;33273;52.254;7.988;2022-10-16T09:19:48;15.30;85.10
47532;DHT22;33273;52.254;7.988;2022-10-16T09:22:18;15.40;84.40
47532;DHT22;33273;52.254;7.988;2022-10-16T09:24:48;15.50;84.70
47532;DHT22;33273;52.254;7.988;2022-10-16T09:27:15;15.60;84.70
47532;DHT22;33273;52.254;7.988;2022-10-16T09:29:41;15.70;83.80
47532;DHT22;33273;52.254;7.988;2022-10-16T09:32:17;15.70;83.00
47532;DHT22;33273;52.254;7.988;2022-10-16T09:34:47;15.80;83.10
47532;DHT22;33273;52.254;7.988;2022-10-16T09:37:18;15.80;84.10
47532;DHT22;33273;52.254;7.988;2022-10-16T09:39:49;15.90;80.50
47532;DHT22;33273;52.254;7.988;2022-10-16T09:42:38;16.00;82.30
47532;DHT22;33273;52.254;7.988;2022-10-16T09:45:03;16.10;79.30
47532;DHT22;33273;52.254;7.988;2022-10-16T09:47:31;16.10;78.30
47532;DHT22;33273;52.254;7.988;2022-10-16T09:50:14;16.20;78.70
47532;DHT22;33273;52.254;7.988;2022-10-16T09:52:44;16.30;78.20
47532;DHT22;33273;52.254;7.988;2022-10-16T09:55:15;16.30;77.20
47532;DHT22;33273;52.254;7.988;2022-10-16T09:57:53;16.40;79.50
47532;DHT22;33273;52.254;7.988;2022-10-16T10:00:20;16.50;76.60
47532;DHT22;33273;52.254;7.988;2022-10-16T10:02:46;16.60;74.90
47532;DHT22;33273;52.254;7.988;2022-10-16T10:05:32;16.60;75.60
47532;DHT22;33273;52.254;7.988;2022-10-16T10:08:02;16.60;72.60
47532;DHT22;33273;52.254;7.988;2022-10-16T10:10:34;16.50;73.20
47532;DHT22;33273;52.254;7.988;2022-10-16T10:13:02;16.50;71.80
47532;DHT22;33273;52.254;7.988;2022-10-16T10:15:33;16.50;71.60
47532;DHT22;33273;52.254;7.988;2022-10-16T10:18:00;16.40;72.60
47532;DHT22;33273;52.254;7.988;2022-10-16T10:20:29;16.40;72.70
47532;DHT22;33273;52.254;7.988;2022-10-16T10:22:56;16.40;73.50
47532;DHT22;33273;52.254;7.988;2022-10-16T10:25:39;16.40;74.00
47532;DHT22;33273;52.254;7.988;2022-10-16T10:30:41;16.40;72.80
47532;DHT22;33273;52.254;7.988;2022-10-16T10:33:24;16.50;72.30
47532;DHT22;33273;52.254;7.988;2022-10-16T10:36:12;16.60;72.30
47532;DHT22;33273;52.254;7.988;2022-10-16T10:38:59;16.70;73.30
47532;DHT22;33273;52.254;7.988;2022-10-16T10:44:07;16.90;69.90
47532;DHT22;33273;52.254;7.988;2022-10-16T10:46:50;16.90;69.00
47532;DHT22;33273;52.254;7.988;2022-10-16T11:05:40;17.30;67.60
47532;DHT22;33273;52.254;7.988;2022-10-16T11:08:20;17.40;66.50
47532;DHT22;33273;52.254;7.988;2022-10-16T11:11:04;17.30;66.50
47532;DHT22;33273;52.254;7.988;2022-10-16T11:13:44;17.40;67.70
47532;DHT22;33273;52.254;7.988;2022-10-16T11:16:17;17.40;67.60
47532;DHT22;33273;52.254;7.988;2022-10-16T11:24:45;17.50;67.90
47532;DHT22;33273;52.254;7.988;2022-10-16T11:27:18;17.60;67.90
47532;DHT22;33273;52.254;7.988;2022-10-16T11:29:52;17.70;68.10
47532;DHT22;33273;52.254;7.988;2022-10-16T11:32:24;17.70;66.10
47532;DHT22;33273;52.254;7.988;2022-10-16T11:35:00;17.80;65.50
47532;DHT22;33273;52.254;7.988;2022-10-16T11:37:33;17.90;65.90
47532;DHT22;33273;52.254;7.988;2022-10-16T11:40:51;18.00;63.30
47532;DHT22;33273;52.254;7.988;2022-10-16T11:42:58;18.00;64.00
47532;DHT22;33273;52.254;7.988;2022-10-16T11:45:36;18.20;62.30
47532;DHT22;33273;52.254;7.988;2022-10-16T11:48:18;18.20;61.60
47532;DHT22;33273;52.254;7.988;2022-10-16T11:50:56;18.20;61.20
47532;DHT22;33273;52.254;7.988;2022-10-16T11:56:17;18.20;60.00
47532;DHT22;33273;52.254;7.988;2022-10-16T12:01:30;18.30;59.90
47532;DHT22;33273;52.254;7.988;2022-10-16T12:06:42;18.20;59.00
47532;DHT22;33273;52.254;7.988;2022-10-16T12:09:19;18.10;59.30
47532;DHT22;33273;52.254;7.988;2022-10-16T12:11:46;18.10;60.30
47532;DHT22;33273;52.254;7.988;2022-10-16T12:16:56;18.20;59.00
47532;DHT22;33273;52.254;7.988;2022-10-16T12:19:25;18.20;60.00
47532;DHT22;33273;52.254;7.988;2022-10-16T12:21:55;18.20;59.90
47532;DHT22;33273;52.254;7.988;2022-10-16T12:24:36;18.20;61.20
47532;DHT22;33273;52.254;7.988;2022-10-16T12:27:06;18.20;59.00
47532;DHT22;33273;52.254;7.988;2022-10-16T12:29:44;18.20;58.00
47532;DHT22;33273;52.254;7.988;2022-10-16T12:32:39;18.30;60.20
47532;DHT22;33273;52.254;7.988;2022-10-16T12:35:17;18.40;59.00
47532;DHT22;33273;52.254;7.988;2022-10-16T12:37:45;18.40;60.50
47532;DHT22;33273;52.254;7.988;2022-10-16T12:40:35;18.50;59.10
47532;DHT22;33273;52.254;7.988;2022-10-16T12:43:10;18.50;59.10
47532;DHT22;33273;52.254;7.988;2022-10-16T12:45:36;18.60;58.60
47532;DHT22;33273;52.254;7.988;2022-10-16T12:48:04;18.70;59.60
47532;DHT22;33273;52.254;7.988;2022-10-16T12:50:43;18.70;57.80
47532;DHT22;33273;52.254;7.988;2022-10-16T12:53:22;18.70;56.50
47532;DHT22;33273;52.254;7.988;2022-10-16T13:01:29;18.70;54.60
47532;DHT22;33273;52.254;7.988;2022-10-16T13:06:45;18.80;53.50
47532;DHT22;33273;52.254;7.988;2022-10-16T13:12:17;18.70;52.90
47532;DHT22;33273;52.254;7.988;2022-10-16T13:17:52;18.70;54.10
47532;DHT22;33273;52.254;7.988;2022-10-16T13:28:06;18.60;53.40
47532;DHT22;33273;52.254;7.988;2022-10-16T13:30:41;18.60;53.20
47532;DHT22;33273;52.254;7.988;2022-10-16T13:33:14;18.60;53.40
47532;DHT22;33273;52.254;7.988;2022-10-16T13:35:56;18.60;53.90
47532;DHT22;33273;52.254;7.988;2022-10-16T13:38:27;18.60;54.40
47532;DHT22;33273;52.254;7.988;2022-10-16T13:40:59;18.60;54.80
47532;DHT22;33273;52.254;7.988;2022-10-16T13:43:32;18.60;53.80
47532;DHT22;33273;52.254;7.988;2022-10-16T13:48:27;18.60;53.80
47532;DHT22;33273;52.254;7.988;2022-10-16T13:51:03;18.60;54.50
47532;DHT22;33273;52.254;7.988;2022-10-16T13:53:32;18.60;53.40
47532;DHT22;33273;52.254;7.988;2022-10-16T13:55:58;18.70;54.00
47532;DHT22;33273;52.254;7.988;2022-10-16T13:58:26;18.70;52.70
47532;DHT22;33273;52.254;7.988;2022-10-16T14:01:17;18.60;52.30
47532;DHT22;33273;52.254;7.988;2022-10-16T14:03:42;18.60;53.40
47532;DHT22;33273;52.254;7.988;2022-10-16T14:06:14;18.50;53.40
47532;DHT22;33273;52.254;7.988;2022-10-16T14:09:12;18.50;53.20
47532;DHT22;33273;52.254;7.988;2022-10-16T14:11:51;18.40;53.30
47532;DHT22;33273;52.254;7.988;2022-10-16T14:14:18;18.40;54.70
47532;DHT22;33273;52.254;7.988;2022-10-16T14:16:45;18.30;54.40
47532;DHT22;33273;52.254;7.988;2022-10-16T14:19:26;18.30;54.40
47532;DHT22;33273;52.254;7.988;2022-10-16T14:21:54;18.30;53.90
47532;DHT22;33273;52.254;7.988;2022-10-16T14:26:57;18.20;54.90
47532;DHT22;33273;52.254;7.988;2022-10-16T14:29:25;18.20;54.60
47532;DHT22;33273;52.254;7.988;2022-10-16T14:32:01;18.20;54.70
47532;DHT22;33273;52.254;7.988;2022-10-16T14:34:54;18.20;55.60
47532;DHT22;33273;52.254;7.988;2022-10-16T14:37:26;18.20;56.90
47532;DHT22;33273;52.254;7.988;2022-10-16T14:39:53;18.20;55.60
47532;DHT22;33273;52.254;7.988;2022-10-16T14:42:21;18.20;55.70
47532;DHT22;33273;52.254;7.988;2022-10-16T14:44:53;18.20;55.60
47532;DHT22;33273;52.254;7.988;2022-10-16T14:47:22;18.20;55.50
47532;DHT22;33273;52.254;7.988;2022-10-16T14:49:53;18.20;56.10
47532;DHT22;33273;52.254;7.988;2022-10-16T14:52:24;18.10;56.20
47532;DHT22;33273;52.254;7.988;2022-10-16T14:54:50;18.10;56.30
47532;DHT22;33273;52.254;7.988;2022-10-16T14:57:23;18.10;56.20
47532;DHT22;33273;52.254;7.988;2022-10-16T14:59:51;18.10;55.40
47532;DHT22;33273;52.254;7.988;2022-10-16T15:02:29;18.10;54.80
47532;DHT22;33273;52.254;7.988;2022-10-16T15:04:57;18.00;55.70
47532;DHT22;33273;52.254;7.988;2022-10-16T15:07:23;18.00;54.60
47532;DHT22;33273;52.254;7.988;2022-10-16T15:09:49;18.00;54.80
47532;DHT22;33273;52.254;7.988;2022-10-16T15:12:15;17.90;55.40
47532;DHT22;33273;52.254;7.988;2022-10-16T15:14:42;17.90;56.10
47532;DHT22;33273;52.254;7.988;2022-10-16T15:17:10;17.80;56.40
47532;DHT22;33273;52.254;7.988;2022-10-16T15:19:37;17.80;56.40
47532;DHT22;33273;52.254;7.988;2022-10-16T15:22:03;17.70;57.30
47532;DHT22;33273;52.254;7.988;2022-10-16T15:24:29;17.70;57.20
47532;DHT22;33273;52.254;7.988;2022-10-16T15:26:56;17.70;57.80
47532;DHT22;33273;52.254;7.988;2022-10-16T15:29:22;17.70;57.30
47532;DHT22;33273;52.254;7.988;2022-10-16T15:31:49;17.70;57.20
47532;DHT22;33273;52.254;7.988;2022-10-16T15:34:16;17.60;57.60
47532;DHT22;33273;52.254;7.988;2022-10-16T15:36:45;17.50;57.80
47532;DHT22;33273;52.254;7.988;2022-10-16T15:39:19;17.50;58.00
47532;DHT22;33273;52.254;7.988;2022-10-16T15:41:46;17.40;58.60
47532;DHT22;33273;52.254;7.988;2022-10-16T15:44:20;17.40;59.00
47532;DHT22;33273;52.254;7.988;2022-10-16T15:46:48;17.30;59.70
47532;DHT22;33273;52.254;7.988;2022-10-16T15:49:14;17.20;60.20
47532;DHT22;33273;52.254;7.988;2022-10-16T15:51:42;17.20;60.80
47532;DHT22;33273;52.254;7.988;2022-10-16T15:54:08;17.10;61.40
47532;DHT22;33273;52.254;7.988;2022-10-16T15:56:36;17.10;61.90
47532;DHT22;33273;52.254;7.988;2022-10-16T15:59:05;17.00;62.10
47532;DHT22;33273;52.254;7.988;2022-10-16T16:01:35;16.90;62.50
47532;DHT22;33273;52.254;7.988;2022-10-16T16:04:02;16.90;63.10
47532;DHT22;33273;52.254;7.988;2022-10-16T16:06:30;16.80;63.80
47532;DHT22;33273;52.254;7.988;2022-10-16T16:08:57;16.80;64.30
47532;DHT22;33273;52.254;7.988;2022-10-16T16:11:25;16.70;64.90
47532;DHT22;33273;52.254;7.988;2022-10-16T16:13:52;16.70;65.60
47532;DHT22;33273;52.254;7.988;2022-10-16T16:16:22;16.60;66.00
47532;DHT22;33273;52.254;7.988;2022-10-16T16:18:52;16.60;66.90
47532;DHT22;33273;52.254;7.988;2022-10-16T16:21:18;16.40;67.70
47532;DHT22;33273;52.254;7.988;2022-10-16T16:23:48;16.50;73.90
47532;DHT22;33273;52.254;7.988;2022-10-16T16:26:24;16.30;71.50
47532;DHT22;33273;52.254;7.988;2022-10-16T16:28:58;16.30;70.90
47532;DHT22;33273;52.254;7.988;2022-10-16T16:31:27;16.20;71.30
47532;DHT22;33273;52.254;7.988;2022-10-16T16:33:54;16.10;71.40
47532;DHT22;33273;52.254;7.988;2022-10-16T16:36:23;16.00;71.60
47532;DHT22;33273;52.254;7.988;2022-10-16T16:38:48;15.90;72.00
47532;DHT22;33273;52.254;7.988;2022-10-16T16:41:21;15.90;72.50
47532;DHT22;33273;52.254;7.988;2022-10-16T16:43:48;15.80;73.10
47532;DHT22;33273;52.254;7.988;2022-10-16T16:46:18;15.80;74.30
47532;DHT22;33273;52.254;7.988;2022-10-16T16:48:44;15.70;74.60
47532;DHT22;33273;52.254;7.988;2022-10-16T16:51:12;15.60;74.40
47532;DHT22;33273;52.254;7.988;2022-10-16T16:53:46;15.60;75.20
47532;DHT22;33273;52.254;7.988;2022-10-16T16:56:13;15.50;76.20
47532;DHT22;33273;52.254;7.988;2022-10-16T16:58:39;15.40;76.80
47532;DHT22;33273;52.254;7.988;2022-10-16T17:01:09;15.30;77.30
47532;DHT22;33273;52.254;7.988;2022-10-16T17:03:35;15.20;77.70
47532;DHT22;33273;52.254;7.988;2022-10-16T17:06:03;15.10;79.00
47532;DHT22;33273;52.254;7.988;2022-10-16T17:08:30;15.00;79.70
47532;DHT22;33273;52.254;7.988;2022-10-16T17:10:56;15.10;83.70
47532;DHT22;33273;52.254;7.988;2022-10-16T17:13:25;15.00;82.70
47532;DHT22;33273;52.254;7.988;2022-10-16T17:15:52;15.00;82.30
47532;DHT22;33273;52.254;7.988;2022-10-16T17:18:19;14.90;82.40
47532;DHT22;33273;52.254;7.988;2022-10-16T17:20:46;14.90;82.70
47532;DHT22;33273;52.254;7.988;2022-10-16T17:23:15;14.90;82.60
47532;DHT22;33273;52.254;7.988;2022-10-16T17:25:41;14.90;82.40
47532;DHT22;33273;52.254;7.988;2022-10-16T17:28:09;14.80;82.30
47532;DHT22;33273;52.254;7.988;2022-10-16T17:30:41;14.80;82.70